createdAt,value
2022-12-13T02:00:25.969Z,949.41
2022-12-13T02:01:25.983Z,949.40
2022-12-13T02:02:25.942Z,949.41
2022-12-13T02:03:25.910Z,949.41
2022-12-13T02:04:25.936Z,949.43
2022-12-13T02:05:25.926Z,949.43
2022-12-13T02:06:25.881Z,949.41
2022-12-13T02:07:25.908Z,949.49
2022-12-13T02:08:25.936Z,949.49
2022-12-13T02:09:25.844Z,949.46
2022-12-13T02:10:25.836Z,949.48
2022-12-13T02:11:25.884Z,949.45
2022-12-13T02:12:29.582Z,949.45
2022-12-13T02:13:28.838Z,949.43
2022-12-13T02:14:25.815Z,949.40
2022-12-13T02:15:25.944Z,949.37
2022-12-13T02:16:25.842Z,949.37
2022-12-13T02:17:25.801Z,949.35
2022-12-13T02:18:25.775Z,949.35
2022-12-13T02:19:25.791Z,949.35
2022-12-13T02:20:25.778Z,949.33
2022-12-13T02:21:25.738Z,949.33
2022-12-13T02:22:25.726Z,949.26
2022-12-13T02:23:25.747Z,949.29
2022-12-13T02:24:25.735Z,949.24
2022-12-13T02:25:28.584Z,949.16
2022-12-13T02:26:25.727Z,949.18
2022-12-13T02:27:30.342Z,949.18
2022-12-13T02:28:31.312Z,949.13
2022-12-13T02:29:30.685Z,949.15
2022-12-13T02:30:25.644Z,949.17
2022-12-13T02:31:25.756Z,949.15
2022-12-13T02:32:25.668Z,949.11
2022-12-13T02:33:25.647Z,949.10
2022-12-13T02:34:25.645Z,949.10
2022-12-13T02:35:25.628Z,949.13
2022-12-13T02:36:25.623Z,949.14
2022-12-13T02:37:26.615Z,949.16
2022-12-13T02:38:25.597Z,949.16
2022-12-13T02:39:30.209Z,949.12
2022-12-13T02:40:25.567Z,949.11
2022-12-13T02:41:25.565Z,949.10
2022-12-13T02:42:25.568Z,949.10
2022-12-13T02:43:33.767Z,949.06
2022-12-13T02:44:25.538Z,949.07
2022-12-13T02:45:25.823Z,949.08
2022-12-13T02:46:25.543Z,949.12
2022-12-13T02:47:25.515Z,949.05
2022-12-13T02:48:25.509Z,949.08
2022-12-13T02:49:25.504Z,949.08
2022-12-13T02:50:25.497Z,949.05
2022-12-13T02:51:25.488Z,949.06
2022-12-13T02:52:25.474Z,949.02
2022-12-13T02:53:25.448Z,949.02
2022-12-13T02:54:25.427Z,949.06
2022-12-13T02:55:28.300Z,949.01
2022-12-13T02:56:25.448Z,949.02
2022-12-13T02:57:25.408Z,948.97
2022-12-13T02:58:28.419Z,948.97
2022-12-13T02:59:25.430Z,949.03
2022-12-13T03:00:25.555Z,948.98
2022-12-13T03:01:27.894Z,948.99
2022-12-13T03:02:31.745Z,949.00
2022-12-13T03:03:25.410Z,948.96
2022-12-13T03:04:26.734Z,949.02
2022-12-13T03:05:25.315Z,948.93
2022-12-13T03:06:25.307Z,948.95
2022-12-13T03:07:25.306Z,948.92
2022-12-13T03:08:25.322Z,948.89
2022-12-13T03:09:25.288Z,948.88
2022-12-13T03:10:25.285Z,948.87
2022-12-13T03:11:25.425Z,948.79
2022-12-13T03:12:25.279Z,948.81
2022-12-13T03:13:29.165Z,948.83
2022-12-13T03:14:29.409Z,948.77
2022-12-13T03:15:25.256Z,948.78
2022-12-13T03:16:25.288Z,948.79
2022-12-13T03:17:25.238Z,948.79
2022-12-13T03:18:25.228Z,948.74
2022-12-13T03:19:25.207Z,948.76
2022-12-13T03:20:25.187Z,948.77
2022-12-13T03:21:25.176Z,948.77
2022-12-13T03:22:25.171Z,948.78
2022-12-13T03:23:25.177Z,948.82
2022-12-13T03:24:25.206Z,948.81
2022-12-13T03:25:31.630Z,948.84
2022-12-13T03:26:25.132Z,948.79
2022-12-13T03:27:25.150Z,948.84
2022-12-13T03:28:28.113Z,948.80
2022-12-13T03:29:25.210Z,948.83
2022-12-13T03:30:25.097Z,948.81
2022-12-13T03:31:25.170Z,948.81
2022-12-13T03:32:25.079Z,948.80
2022-12-13T03:33:25.061Z,948.76
2022-12-13T03:34:25.058Z,948.82
2022-12-13T03:35:34.996Z,948.81
2022-12-13T03:36:26.065Z,948.84
2022-12-13T03:37:25.183Z,948.77
2022-12-13T03:38:25.015Z,948.75
2022-12-13T03:39:25.025Z,948.73
2022-12-13T03:40:25.042Z,948.75
2022-12-13T03:41:25.027Z,948.71
2022-12-13T03:42:25.171Z,948.77
2022-12-13T03:43:27.997Z,948.73
2022-12-13T03:44:24.988Z,948.73
2022-12-13T03:45:24.961Z,948.73
2022-12-13T03:46:25.015Z,948.78
2022-12-13T03:47:24.967Z,948.72
2022-12-13T03:48:24.936Z,948.74
2022-12-13T03:49:24.934Z,948.68
2022-12-13T03:50:27.468Z,948.68
2022-12-13T03:51:24.919Z,948.73
2022-12-13T03:52:24.881Z,948.69
2022-12-13T03:53:33.852Z,948.73
2022-12-13T03:54:24.888Z,948.71
2022-12-13T03:55:24.889Z,948.73
2022-12-13T03:56:24.878Z,948.76
2022-12-13T03:57:24.871Z,948.77
2022-12-13T03:58:35.236Z,948.75
2022-12-13T03:59:24.834Z,948.73
2022-12-13T04:00:24.864Z,948.73
2022-12-13T04:01:24.866Z,948.73
2022-12-13T04:02:31.125Z,948.64
2022-12-13T04:03:24.853Z,948.64
2022-12-13T04:04:24.779Z,948.66
2022-12-13T04:05:24.925Z,948.63
2022-12-13T04:06:29.817Z,948.67
2022-12-13T04:07:24.771Z,948.65
2022-12-13T04:08:24.842Z,948.58
2022-12-13T04:09:24.778Z,948.63
2022-12-13T04:10:25.370Z,948.58
2022-12-13T04:11:24.746Z,948.57
2022-12-13T04:12:24.718Z,948.55
2022-12-13T04:13:27.717Z,948.60
2022-12-13T04:14:24.700Z,948.59
2022-12-13T04:15:24.700Z,948.61
2022-12-13T04:16:24.748Z,948.61
2022-12-13T04:17:24.674Z,948.61
2022-12-13T04:18:24.640Z,948.62
2022-12-13T04:19:24.662Z,948.63
2022-12-13T04:20:24.631Z,948.62
2022-12-13T04:21:24.608Z,948.52
2022-12-13T04:22:25.050Z,948.51
2022-12-13T04:23:24.650Z,948.50
2022-12-13T04:24:31.409Z,948.52
2022-12-13T04:25:24.579Z,948.46
2022-12-13T04:26:24.605Z,948.48
2022-12-13T04:27:24.580Z,948.50
2022-12-13T04:28:27.540Z,948.49
2022-12-13T04:29:24.582Z,948.50
2022-12-13T04:30:24.564Z,948.47
2022-12-13T04:31:24.575Z,948.48
2022-12-13T04:32:26.855Z,948.52
2022-12-13T04:33:24.535Z,948.52
2022-12-13T04:34:26.388Z,948.53
2022-12-13T04:35:25.509Z,948.54
2022-12-13T04:36:31.013Z,948.55
2022-12-13T04:37:24.462Z,948.61
2022-12-13T04:38:24.459Z,948.55
2022-12-13T04:39:24.482Z,948.60
2022-12-13T04:40:24.437Z,948.66
2022-12-13T04:41:24.434Z,948.61
2022-12-13T04:42:24.450Z,948.65
2022-12-13T04:43:27.592Z,948.60
2022-12-13T04:44:28.923Z,948.66
2022-12-13T04:45:24.452Z,948.64
2022-12-13T04:46:24.434Z,948.61
2022-12-13T04:47:24.405Z,948.63
2022-12-13T04:48:30.293Z,948.60
2022-12-13T04:49:24.381Z,948.55
2022-12-13T04:50:24.343Z,948.56
2022-12-13T04:51:24.364Z,948.52
2022-12-13T04:52:24.322Z,948.52
2022-12-13T04:53:24.311Z,948.47
2022-12-13T04:54:24.807Z,948.48
2022-12-13T04:55:25.326Z,948.49
2022-12-13T04:56:24.291Z,948.49
2022-12-13T04:57:24.309Z,948.43
2022-12-13T04:58:27.263Z,948.43
2022-12-13T04:59:24.306Z,948.42
2022-12-13T05:00:24.363Z,948.42
2022-12-13T05:01:24.321Z,948.46
2022-12-13T05:02:24.482Z,948.48
2022-12-13T05:03:24.243Z,948.49
2022-12-13T05:04:28.953Z,948.51
2022-12-13T05:05:24.208Z,948.47
2022-12-13T05:06:27.600Z,948.51
2022-12-13T05:07:24.194Z,948.48
2022-12-13T05:08:24.191Z,948.56
2022-12-13T05:09:24.184Z,948.51
2022-12-13T05:10:36.170Z,948.52
2022-12-13T05:11:24.173Z,948.45
2022-12-13T05:12:25.133Z,948.45
2022-12-13T05:13:27.151Z,948.46
2022-12-13T05:14:24.164Z,948.42
2022-12-13T05:15:24.112Z,948.46
2022-12-13T05:16:24.822Z,948.45
2022-12-13T05:17:24.108Z,948.53
2022-12-13T05:18:24.075Z,948.53
2022-12-13T05:19:30.683Z,948.54
2022-12-13T05:20:24.064Z,948.48
2022-12-13T05:21:24.045Z,948.53
2022-12-13T05:22:24.067Z,948.55
2022-12-13T05:23:24.050Z,948.56
2022-12-13T05:24:24.086Z,948.55
2022-12-13T05:25:24.041Z,948.48
2022-12-13T05:26:24.025Z,948.50
2022-12-13T05:27:26.786Z,948.44
2022-12-13T05:28:28.818Z,948.43
2022-12-13T05:29:24.023Z,948.45
2022-12-13T05:30:23.961Z,948.41
2022-12-13T05:31:24.226Z,948.44
2022-12-13T05:32:24.001Z,948.42
2022-12-13T05:33:23.963Z,948.47
2022-12-13T05:34:23.959Z,948.48
2022-12-13T05:35:24.094Z,948.44
2022-12-13T05:36:23.958Z,948.45
2022-12-13T05:37:23.904Z,948.41
2022-12-13T05:38:23.936Z,948.44
2022-12-13T05:39:29.382Z,948.41
2022-12-13T05:40:23.874Z,948.43
2022-12-13T05:41:23.921Z,948.45
2022-12-13T05:42:23.854Z,948.41
2022-12-13T05:43:43.156Z,948.42
2022-12-13T05:44:24.881Z,948.39
2022-12-13T05:45:23.851Z,948.36
2022-12-13T05:46:23.946Z,948.35
2022-12-13T05:47:23.834Z,948.35
2022-12-13T05:48:24.302Z,948.34
2022-12-13T05:49:23.781Z,948.32
2022-12-13T05:50:23.784Z,948.33
2022-12-13T05:51:23.800Z,948.33
2022-12-13T05:52:30.317Z,948.38
2022-12-13T05:53:30.762Z,948.37
2022-12-13T05:54:23.766Z,948.43
2022-12-13T05:55:23.753Z,948.38
2022-12-13T05:56:23.759Z,948.40
2022-12-13T05:57:23.746Z,948.41
2022-12-13T05:58:26.704Z,948.39
2022-12-13T05:59:23.741Z,948.38
2022-12-13T06:00:29.617Z,948.39
2022-12-13T06:01:23.707Z,948.38
2022-12-13T06:02:23.827Z,948.40
2022-12-13T06:03:23.745Z,948.34
2022-12-13T06:04:23.795Z,948.35
2022-12-13T06:05:23.679Z,948.31
2022-12-13T06:06:23.623Z,948.29
2022-12-13T06:07:23.645Z,948.32
2022-12-13T06:08:24.511Z,948.28
2022-12-13T06:09:23.624Z,948.30
2022-12-13T06:10:23.592Z,948.26
2022-12-13T06:11:31.817Z,948.27
2022-12-13T06:12:31.821Z,948.26
2022-12-13T06:13:32.203Z,948.21
2022-12-13T06:14:24.596Z,948.25
2022-12-13T06:15:23.814Z,948.30
2022-12-13T06:16:24.604Z,948.31
2022-12-13T06:17:23.529Z,948.34
2022-12-13T06:18:23.552Z,948.40
2022-12-13T06:19:23.511Z,948.39
2022-12-13T06:20:24.773Z,948.35
2022-12-13T06:21:23.568Z,948.40
2022-12-13T06:22:24.592Z,948.35
2022-12-13T06:23:23.493Z,948.37
2022-12-13T06:24:23.492Z,948.43
2022-12-13T06:25:31.473Z,948.43
2022-12-13T06:26:23.441Z,948.47
2022-12-13T06:27:23.458Z,948.46
2022-12-13T06:28:26.427Z,948.48
2022-12-13T06:29:25.570Z,948.42
2022-12-13T06:30:23.428Z,948.43
2022-12-13T06:31:23.402Z,948.46
2022-12-13T06:32:23.391Z,948.45
2022-12-13T06:33:23.822Z,948.42
2022-12-13T06:34:23.405Z,948.38
2022-12-13T06:35:29.465Z,948.36
2022-12-13T06:36:23.374Z,948.34
2022-12-13T06:37:23.345Z,948.40
2022-12-13T06:38:31.879Z,948.39
2022-12-13T06:39:23.342Z,948.43
2022-12-13T06:40:23.511Z,948.44
2022-12-13T06:41:27.620Z,948.42
2022-12-13T06:42:23.323Z,948.52
2022-12-13T06:43:26.276Z,948.52
2022-12-13T06:44:23.262Z,948.47
2022-12-13T06:45:23.285Z,948.48
2022-12-13T06:46:23.309Z,948.47
2022-12-13T06:47:31.355Z,948.48
2022-12-13T06:48:23.215Z,948.47
2022-12-13T06:49:23.197Z,948.45
2022-12-13T06:50:23.193Z,948.49
2022-12-13T06:51:23.327Z,948.47
2022-12-13T06:52:23.727Z,948.50
2022-12-13T06:53:23.148Z,948.57
2022-12-13T06:54:23.146Z,948.50
2022-12-13T06:55:23.505Z,948.57
2022-12-13T06:56:23.132Z,948.51
2022-12-13T06:57:23.129Z,948.52
2022-12-13T06:58:26.114Z,948.48
2022-12-13T06:59:23.126Z,948.49
2022-12-13T07:00:25.057Z,948.52
2022-12-13T07:01:23.969Z,948.53
2022-12-13T07:02:25.606Z,948.56
2022-12-13T07:03:23.092Z,948.52
2022-12-13T07:04:29.628Z,948.55
2022-12-13T07:05:23.037Z,948.51
2022-12-13T07:06:23.020Z,948.51
2022-12-13T07:07:23.015Z,948.47
2022-12-13T07:08:23.124Z,948.51
2022-12-13T07:09:23.033Z,948.49
2022-12-13T07:10:23.198Z,948.49
2022-12-13T07:11:22.999Z,948.56
2022-12-13T07:12:22.956Z,948.49
2022-12-13T07:13:25.998Z,948.48
2022-12-13T07:14:22.980Z,948.51
2022-12-13T07:15:22.923Z,948.57
2022-12-13T07:16:22.993Z,948.60
2022-12-13T07:17:32.565Z,948.57
2022-12-13T07:18:22.924Z,948.65
2022-12-13T07:19:24.731Z,948.65
2022-12-13T07:20:23.874Z,948.63
2022-12-13T07:21:22.893Z,948.56
2022-12-13T07:22:22.888Z,948.55
2022-12-13T07:23:24.467Z,948.59
2022-12-13T07:24:22.892Z,948.56
2022-12-13T07:25:27.759Z,948.59
2022-12-13T07:26:22.818Z,948.60
2022-12-13T07:27:22.847Z,948.61
2022-12-13T07:28:25.830Z,948.62
2022-12-13T07:29:23.046Z,948.61
2022-12-13T07:30:22.787Z,948.59
2022-12-13T07:31:22.877Z,948.61
2022-12-13T07:32:22.800Z,948.61
2022-12-13T07:33:22.929Z,948.63
2022-12-13T07:34:22.798Z,948.63
2022-12-13T07:35:22.777Z,948.64
2022-12-13T07:36:22.756Z,948.62
2022-12-13T07:37:30.641Z,948.68
2022-12-13T07:38:22.739Z,948.73
2022-12-13T07:39:22.716Z,948.75
2022-12-13T07:40:22.700Z,948.76
2022-12-13T07:41:23.425Z,948.79
2022-12-13T07:42:22.673Z,948.71
2022-12-13T07:43:25.689Z,948.77
2022-12-13T07:44:22.660Z,948.77
2022-12-13T07:45:22.727Z,948.77
2022-12-13T07:46:32.049Z,948.77
2022-12-13T07:47:22.625Z,948.83
2022-12-13T07:48:22.690Z,948.78
2022-12-13T07:49:22.611Z,948.75
2022-12-13T07:50:24.049Z,948.81
2022-12-13T07:51:23.612Z,948.77
2022-12-13T07:52:22.576Z,948.75
2022-12-13T07:53:22.593Z,948.74
2022-12-13T07:54:22.586Z,948.78
2022-12-13T07:55:23.105Z,948.77
2022-12-13T07:56:22.547Z,948.80
2022-12-13T07:57:22.534Z,948.83
2022-12-13T07:58:25.546Z,948.88
2022-12-13T07:59:28.424Z,948.82
2022-12-13T08:00:22.508Z,948.79
2022-12-13T08:01:22.589Z,948.83
2022-12-13T08:02:22.496Z,948.85
2022-12-13T08:03:25.152Z,948.83
2022-12-13T08:04:22.505Z,948.84
2022-12-13T08:05:26.622Z,948.84
2022-12-13T08:06:23.500Z,948.83
2022-12-13T08:07:22.439Z,948.82
2022-12-13T08:08:22.467Z,948.84
2022-12-13T08:09:22.432Z,948.83
2022-12-13T08:10:22.409Z,948.89
2022-12-13T08:11:22.420Z,948.85
2022-12-13T08:12:22.935Z,948.87
2022-12-13T08:13:25.401Z,948.90
2022-12-13T08:14:22.429Z,948.87
2022-12-13T08:15:22.387Z,948.87
2022-12-13T08:16:28.282Z,948.88
2022-12-13T08:17:22.370Z,948.91
2022-12-13T08:18:22.356Z,948.90
2022-12-13T08:19:22.350Z,948.91
2022-12-13T08:20:22.603Z,948.89
2022-12-13T08:21:52.344Z,948.90
2022-12-13T08:22:24.033Z,948.89
2022-12-13T08:23:22.956Z,948.94
2022-12-13T08:24:22.792Z,948.92
2022-12-13T08:25:22.288Z,948.87
2022-12-13T08:26:22.263Z,948.97
2022-12-13T08:27:22.280Z,948.97
2022-12-13T08:28:25.234Z,948.96
2022-12-13T08:29:34.371Z,949.02
2022-12-13T08:30:22.763Z,949.06
2022-12-13T08:31:22.266Z,949.02
2022-12-13T08:32:22.200Z,949.02
2022-12-13T08:33:22.597Z,949.09
2022-12-13T08:34:22.181Z,949.05
2022-12-13T08:35:22.231Z,949.03
2022-12-13T08:36:23.182Z,949.08
2022-12-13T08:37:22.209Z,949.03
2022-12-13T08:38:22.921Z,949.06
2022-12-13T08:39:22.130Z,949.05
2022-12-13T08:40:22.157Z,949.07
2022-12-13T08:41:22.164Z,949.03
2022-12-13T08:42:22.134Z,949.06
2022-12-13T08:43:25.430Z,949.12
2022-12-13T08:44:22.137Z,949.10
2022-12-13T08:45:22.107Z,949.04
2022-12-13T08:46:22.151Z,949.08
2022-12-13T08:47:23.461Z,949.06
2022-12-13T08:48:22.685Z,949.09
2022-12-13T08:49:22.116Z,949.13
2022-12-13T08:50:22.059Z,949.11
2022-12-13T08:51:25.704Z,949.15
2022-12-13T08:52:22.017Z,949.20
2022-12-13T08:53:28.226Z,949.20
2022-12-13T08:54:31.566Z,949.25
2022-12-13T08:55:32.002Z,949.24
2022-12-13T08:56:21.968Z,949.25
2022-12-13T08:57:21.963Z,949.28
2022-12-13T08:58:24.963Z,949.27
2022-12-13T08:59:21.981Z,949.27
2022-12-13T09:00:21.969Z,949.32
2022-12-13T09:01:21.945Z,949.32
2022-12-13T09:02:22.088Z,949.35
2022-12-13T09:03:22.330Z,949.38
2022-12-13T09:04:31.144Z,949.41
2022-12-13T09:05:33.237Z,949.42
2022-12-13T09:06:21.877Z,949.38
2022-12-13T09:07:21.970Z,949.40
2022-12-13T09:08:23.914Z,949.42
2022-12-13T09:09:21.876Z,949.39
2022-12-13T09:10:26.882Z,949.44
2022-12-13T09:11:36.399Z,949.44
2022-12-13T09:12:30.383Z,949.43
2022-12-13T09:13:31.111Z,949.42
2022-12-13T09:14:23.500Z,949.38
2022-12-13T09:15:23.199Z,949.37
2022-12-13T09:16:23.787Z,949.39
2022-12-13T09:17:24.456Z,949.35
2022-12-13T09:18:23.887Z,949.34
2022-12-13T09:19:26.274Z,949.34
2022-12-13T09:20:29.092Z,949.36
2022-12-13T09:21:31.009Z,949.32
2022-12-13T09:22:32.804Z,949.35
2022-12-13T09:23:23.867Z,949.32
2022-12-13T09:24:23.960Z,949.32
2022-12-13T09:25:23.945Z,949.30
2022-12-13T09:26:25.243Z,949.32
2022-12-13T09:27:27.646Z,949.30
2022-12-13T09:28:25.693Z,949.23
2022-12-13T09:29:21.707Z,949.30
2022-12-13T09:30:21.670Z,949.30
2022-12-13T09:31:21.786Z,949.25
2022-12-13T09:32:21.637Z,949.24
2022-12-13T09:33:29.920Z,949.21
2022-12-13T09:34:21.676Z,949.18
2022-12-13T09:35:21.601Z,949.20
2022-12-13T09:36:21.602Z,949.16
2022-12-13T09:37:23.121Z,949.17
2022-12-13T09:38:21.592Z,949.20
2022-12-13T09:39:21.705Z,949.17
2022-12-13T09:40:25.934Z,949.22
2022-12-13T09:41:28.959Z,949.21
2022-12-13T09:42:21.536Z,949.20
2022-12-13T09:43:31.730Z,949.23
2022-12-13T09:44:33.047Z,949.21
2022-12-13T09:45:31.721Z,949.24
2022-12-13T09:46:22.941Z,949.21
2022-12-13T09:47:22.952Z,949.19
2022-12-13T09:48:23.164Z,949.14
2022-12-13T09:49:23.304Z,949.15
2022-12-13T09:50:24.950Z,949.16
2022-12-13T09:51:28.594Z,949.11
2022-12-13T09:52:22.672Z,949.15
2022-12-13T09:53:22.487Z,949.20
2022-12-13T09:54:22.460Z,949.24
2022-12-13T09:55:21.404Z,949.17
2022-12-13T09:56:21.429Z,949.22
2022-12-13T09:57:32.333Z,949.16
2022-12-13T09:58:24.839Z,949.15
2022-12-13T09:59:21.400Z,949.10
2022-12-13T10:00:21.351Z,949.16
2022-12-13T10:01:22.534Z,949.11
2022-12-13T10:02:21.371Z,949.17
2022-12-13T10:03:21.733Z,949.16
2022-12-13T10:04:21.328Z,949.20
2022-12-13T10:05:25.311Z,949.15
2022-12-13T10:06:23.423Z,949.18
2022-12-13T10:07:21.301Z,949.12
2022-12-13T10:08:21.301Z,949.03
2022-12-13T10:09:21.382Z,949.01
2022-12-13T10:10:21.331Z,949.00
2022-12-13T10:11:21.231Z,949.00
2022-12-13T10:12:21.233Z,948.97
2022-12-13T10:13:24.590Z,948.95
2022-12-13T10:14:21.222Z,948.96
2022-12-13T10:15:22.525Z,948.93
2022-12-13T10:16:23.877Z,948.95
2022-12-13T10:17:22.190Z,948.94
2022-12-13T10:18:21.176Z,948.92
2022-12-13T10:19:29.098Z,948.90
2022-12-13T10:20:21.182Z,948.89
2022-12-13T10:21:21.175Z,948.92
2022-12-13T10:22:21.149Z,948.89
2022-12-13T10:23:38.660Z,948.83
2022-12-13T10:24:27.673Z,948.87
2022-12-13T10:25:21.149Z,948.85
2022-12-13T10:26:24.145Z,948.85
2022-12-13T10:27:21.129Z,948.89
2022-12-13T10:28:24.118Z,948.89
2022-12-13T10:29:21.130Z,948.85
2022-12-13T10:30:27.726Z,948.85
2022-12-13T10:31:21.135Z,948.88
2022-12-13T10:32:21.066Z,948.84
2022-12-13T10:33:24.675Z,948.82
2022-12-13T10:34:21.056Z,948.81
2022-12-13T10:35:21.026Z,948.75
2022-12-13T10:36:25.048Z,948.80
2022-12-13T10:37:21.036Z,948.74
2022-12-13T10:38:21.009Z,948.79
2022-12-13T10:39:21.986Z,948.77
2022-12-13T10:40:32.818Z,948.79
2022-12-13T10:41:20.988Z,948.80
2022-12-13T10:42:22.496Z,948.82
2022-12-13T10:43:24.414Z,948.82
2022-12-13T10:44:21.234Z,948.77
2022-12-13T10:45:23.076Z,948.81
2022-12-13T10:46:25.117Z,948.78
2022-12-13T10:47:21.978Z,948.77
2022-12-13T10:48:21.092Z,948.78
2022-12-13T10:49:20.890Z,948.84
2022-12-13T10:50:20.870Z,948.78
2022-12-13T10:51:20.857Z,948.81
2022-12-13T10:52:30.767Z,948.83
2022-12-13T10:53:22.899Z,948.79
2022-12-13T10:54:20.839Z,948.80
2022-12-13T10:55:23.108Z,948.80
2022-12-13T10:56:22.877Z,948.83
2022-12-13T10:57:20.811Z,948.78
2022-12-13T10:58:23.820Z,948.76
2022-12-13T10:59:20.846Z,948.78
2022-12-13T11:00:20.867Z,948.76
2022-12-13T11:01:20.851Z,948.74
2022-12-13T11:02:20.823Z,948.78
2022-12-13T11:03:20.792Z,948.77
2022-12-13T11:04:26.891Z,948.80
2022-12-13T11:05:23.300Z,948.79
2022-12-13T11:06:20.749Z,948.79
2022-12-13T11:07:20.716Z,948.79
2022-12-13T11:08:20.732Z,948.70
2022-12-13T11:09:23.450Z,948.71
2022-12-13T11:10:26.647Z,948.68
2022-12-13T11:11:20.696Z,948.73
2022-12-13T11:12:20.690Z,948.71
2022-12-13T11:13:24.013Z,948.68
2022-12-13T11:14:20.679Z,948.71
2022-12-13T11:15:23.340Z,948.72
2022-12-13T11:16:20.705Z,948.70
2022-12-13T11:17:20.637Z,948.69
2022-12-13T11:18:20.636Z,948.69
2022-12-13T11:19:20.677Z,948.79
2022-12-13T11:20:20.621Z,948.72
2022-12-13T11:21:20.589Z,948.76
2022-12-13T11:22:20.629Z,948.77
2022-12-13T11:23:20.549Z,948.77
2022-12-13T11:24:22.969Z,948.69
2022-12-13T11:25:20.562Z,948.67
2022-12-13T11:26:24.512Z,948.65
2022-12-13T11:27:20.538Z,948.66
2022-12-13T11:28:26.813Z,948.63
2022-12-13T11:29:20.542Z,948.58
2022-12-13T11:30:20.523Z,948.55
2022-12-13T11:31:20.595Z,948.52
2022-12-13T11:32:22.699Z,948.51
2022-12-13T11:33:20.488Z,948.58
2022-12-13T11:34:20.444Z,948.54
2022-12-13T11:35:20.533Z,948.54
2022-12-13T11:36:20.437Z,948.57
2022-12-13T11:37:20.442Z,948.53
2022-12-13T11:38:20.454Z,948.53
2022-12-13T11:39:20.427Z,948.49
2022-12-13T11:40:20.390Z,948.44
2022-12-13T11:41:32.279Z,948.45
2022-12-13T11:42:20.400Z,948.46
2022-12-13T11:43:23.381Z,948.40
2022-12-13T11:44:20.361Z,948.40
2022-12-13T11:45:22.791Z,948.43
2022-12-13T11:46:20.385Z,948.46
2022-12-13T11:47:20.324Z,948.46
2022-12-13T11:48:20.345Z,948.42
2022-12-13T11:49:20.329Z,948.45
2022-12-13T11:50:33.127Z,948.41
2022-12-13T11:51:20.302Z,948.39
2022-12-13T11:52:20.272Z,948.40
2022-12-13T11:53:20.266Z,948.44
2022-12-13T11:54:23.901Z,948.43
2022-12-13T11:55:20.239Z,948.44
2022-12-13T11:56:20.236Z,948.41
2022-12-13T11:57:20.253Z,948.44
2022-12-13T11:58:54.063Z,948.45
2022-12-13T11:59:26.565Z,948.39
2022-12-13T12:00:34.044Z,948.40
2022-12-13T12:01:20.193Z,948.40
2022-12-13T12:02:20.298Z,948.42
2022-12-13T12:03:20.270Z,948.42
2022-12-13T12:04:20.152Z,948.42
2022-12-13T12:05:20.184Z,948.41
2022-12-13T12:06:20.136Z,948.40
2022-12-13T12:07:35.438Z,948.40
2022-12-13T12:08:31.108Z,948.36
2022-12-13T12:09:20.100Z,948.34
2022-12-13T12:10:20.134Z,948.30
2022-12-13T12:11:20.113Z,948.34
2022-12-13T12:12:22.223Z,948.30
2022-12-13T12:13:23.065Z,948.37
2022-12-13T12:14:20.097Z,948.36
2022-12-13T12:15:26.635Z,948.37
2022-12-13T12:16:20.119Z,948.34
2022-12-13T12:17:20.024Z,948.34
2022-12-13T12:18:20.015Z,948.34
2022-12-13T12:19:20.087Z,948.35
2022-12-13T12:20:23.766Z,948.37
2022-12-13T12:21:19.986Z,948.35
2022-12-13T12:22:20.975Z,948.38
2022-12-13T12:23:19.965Z,948.38
2022-12-13T12:24:19.949Z,948.34
2022-12-13T12:25:19.947Z,948.38
2022-12-13T12:26:19.955Z,948.37
2022-12-13T12:27:22.619Z,948.42
2022-12-13T12:28:23.342Z,948.37
2022-12-13T12:29:19.953Z,948.33
2022-12-13T12:30:23.402Z,948.38
2022-12-13T12:31:19.983Z,948.35
2022-12-13T12:32:19.875Z,948.38
2022-12-13T12:33:19.894Z,948.41
2022-12-13T12:34:28.168Z,948.42
2022-12-13T12:35:19.848Z,948.39
2022-12-13T12:36:19.858Z,948.42
2022-12-13T12:37:19.878Z,948.40
2022-12-13T12:38:19.854Z,948.38
2022-12-13T12:39:19.841Z,948.44
2022-12-13T12:40:19.828Z,948.44
2022-12-13T12:41:19.795Z,948.45
2022-12-13T12:42:20.739Z,948.49
2022-12-13T12:43:22.834Z,948.45
2022-12-13T12:44:19.767Z,948.50
2022-12-13T12:45:54.464Z,948.53
2022-12-13T12:46:20.823Z,948.46
2022-12-13T12:47:46.724Z,948.54
2022-12-13T12:49:20.827Z,948.51
2022-12-13T12:50:19.697Z,948.57
2022-12-13T12:51:19.700Z,948.54
2022-12-13T12:52:19.707Z,948.53
2022-12-13T12:53:19.697Z,948.61
2022-12-13T12:54:19.657Z,948.59
2022-12-13T12:55:20.682Z,948.53
2022-12-13T12:56:19.664Z,948.56
2022-12-13T12:57:19.658Z,948.56
2022-12-13T12:58:22.934Z,948.52
2022-12-13T12:59:19.632Z,948.59
2022-12-13T13:00:19.769Z,948.57
2022-12-13T13:01:19.664Z,948.57
2022-12-13T13:02:19.706Z,948.58
2022-12-13T13:03:22.853Z,948.54
2022-12-13T13:04:22.858Z,948.52
2022-12-13T13:05:19.556Z,948.48
2022-12-13T13:06:19.536Z,948.55
2022-12-13T13:07:22.987Z,948.53
2022-12-13T13:08:19.528Z,948.57
2022-12-13T13:09:24.514Z,948.56
2022-12-13T13:10:29.278Z,948.60
2022-12-13T13:11:25.023Z,948.60
2022-12-13T13:12:29.438Z,948.67
2022-12-13T13:13:32.717Z,948.58
2022-12-13T13:14:19.893Z,948.61
2022-12-13T13:15:19.490Z,948.62
2022-12-13T13:16:19.539Z,948.60
2022-12-13T13:17:19.438Z,948.60
2022-12-13T13:18:19.427Z,948.57
2022-12-13T13:19:25.812Z,948.55
2022-12-13T13:20:19.497Z,948.57
2022-12-13T13:21:19.428Z,948.56
2022-12-13T13:22:31.111Z,948.54
2022-12-13T13:23:39.543Z,948.60
2022-12-13T13:24:20.372Z,948.55
2022-12-13T13:25:19.398Z,948.62
2022-12-13T13:26:31.440Z,948.62
2022-12-13T13:27:20.360Z,948.64
2022-12-13T13:28:22.332Z,948.65
2022-12-13T13:29:27.007Z,948.64
2022-12-13T13:30:19.310Z,948.64
2022-12-13T13:31:19.390Z,948.62
2022-12-13T13:32:29.168Z,948.62
2022-12-13T13:33:19.310Z,948.65
2022-12-13T13:34:19.279Z,948.62
2022-12-13T13:35:19.265Z,948.62
2022-12-13T13:36:29.298Z,948.64
2022-12-13T13:37:22.560Z,948.59
2022-12-13T13:38:19.238Z,948.58
2022-12-13T13:39:19.412Z,948.59
2022-12-13T13:40:30.119Z,948.55
2022-12-13T13:41:19.201Z,948.53
2022-12-13T13:42:19.222Z,948.52
2022-12-13T13:43:24.930Z,948.50
2022-12-13T13:44:19.690Z,948.54
2022-12-13T13:45:19.177Z,948.51
2022-12-13T13:46:19.219Z,948.48
2022-12-13T13:47:19.164Z,948.53
2022-12-13T13:48:19.203Z,948.52
2022-12-13T13:49:19.143Z,948.54
2022-12-13T13:50:19.111Z,948.56
2022-12-13T13:51:19.132Z,948.58
2022-12-13T13:52:26.997Z,948.56
2022-12-13T13:53:20.406Z,948.53
2022-12-13T13:54:19.108Z,948.61
2022-12-13T13:55:19.074Z,948.58
2022-12-13T13:56:19.085Z,948.55
2022-12-13T13:57:22.284Z,948.58
2022-12-13T13:58:23.031Z,948.61
2022-12-13T13:59:19.072Z,948.54
2022-12-13T14:00:19.042Z,948.53
2022-12-13T14:01:19.053Z,948.53
2022-12-13T14:02:19.047Z,948.50
2022-12-13T14:03:29.244Z,948.48
2022-12-13T14:04:19.002Z,948.49
2022-12-13T14:05:18.970Z,948.48
2022-12-13T14:06:18.984Z,948.52
2022-12-13T14:07:25.029Z,948.50
2022-12-13T14:08:20.342Z,948.53
2022-12-13T14:09:18.925Z,948.55
2022-12-13T14:10:18.924Z,948.51
2022-12-13T14:11:19.044Z,948.54
2022-12-13T14:12:18.925Z,948.51
2022-12-13T14:13:22.074Z,948.52
2022-12-13T14:14:21.766Z,948.50
2022-12-13T14:15:18.894Z,948.53
2022-12-13T14:16:21.109Z,948.51
2022-12-13T14:17:18.854Z,948.55
2022-12-13T14:18:21.729Z,948.53
2022-12-13T14:19:18.861Z,948.54
2022-12-13T14:20:18.870Z,948.52
2022-12-13T14:21:18.822Z,948.59
2022-12-13T14:22:18.835Z,948.55
2022-12-13T14:23:21.505Z,948.59
2022-12-13T14:24:18.806Z,948.60
2022-12-13T14:25:18.764Z,948.60
2022-12-13T14:26:18.812Z,948.61
2022-12-13T14:27:18.781Z,948.61
2022-12-13T14:28:21.770Z,948.56
2022-12-13T14:29:18.771Z,948.64